DRK210 VQPR-VECC
Flight info
| Callsign | DRK210 |
|---|---|
| Flight time | N/A |
| Altitude | 38000 |
| Route | TAKTI DCT BOGOP R598 RAJ R472 AGODA AGODA2A |
| Aircraft | A320/M-SDE3FGHIRWY/LB1 |
Departure
| Time | N/A |
|---|---|
| Airport | Paro International Airport (VQPR) |
Arrival
| Time | 2026-04-21 08:41 |
|---|---|
| Airport | Netaji Subhash Chandra Bose International Airport (VECC) |
| Time | Latitude | Longitude | Altitude | Speed | Heading |
|---|---|---|---|---|---|
| 2026-04-21 08:28 | 23.69162 | 88.52418 | 37700 ft | 404 kts | 197° |
| 2026-04-21 08:28 | 23.67358 | 88.52196 | 37354 ft | 410 kts | 195° |
| 2026-04-21 08:28 | 23.64481 | 88.51932 | 36318 ft | 419 kts | 193° |
| 2026-04-21 08:29 | 23.61554 | 88.51757 | 34871 ft | 425 kts | 192° |
| 2026-04-21 08:29 | 23.58571 | 88.51633 | 33363 ft | 433 kts | 191° |
| 2026-04-21 08:29 | 23.55559 | 88.51529 | 32023 ft | 432 kts | 190° |
| 2026-04-21 08:29 | 23.52558 | 88.51418 | 30665 ft | 432 kts | 190° |
| 2026-04-21 08:30 | 23.49545 | 88.51283 | 29064 ft | 436 kts | 189° |
| 2026-04-21 08:30 | 23.46503 | 88.51122 | 27126 ft | 441 kts | 189° |
| 2026-04-21 08:30 | 23.43419 | 88.50946 | 25290 ft | 446 kts | 188° |
| 2026-04-21 08:30 | 23.40318 | 88.50768 | 23616 ft | 446 kts | 188° |
| 2026-04-21 08:31 | 23.37215 | 88.50591 | 21630 ft | 448 kts | 187° |
| 2026-04-21 08:31 | 23.34093 | 88.50415 | 19768 ft | 449 kts | 187° |
| 2026-04-21 08:31 | 23.30981 | 88.50245 | 18195 ft | 446 kts | 186° |
| 2026-04-21 08:31 | 23.27898 | 88.50077 | 16563 ft | 440 kts | 186° |
| 2026-04-21 08:32 | 23.24934 | 88.49534 | 15071 ft | 426 kts | 202° |
| 2026-04-21 08:32 | 23.22211 | 88.48367 | 13598 ft | 418 kts | 203° |
| 2026-04-21 08:32 | 23.19366 | 88.47708 | 12051 ft | 420 kts | 187° |
| 2026-04-21 08:32 | 23.16453 | 88.47743 | 10536 ft | 417 kts | 180° |
| 2026-04-21 08:33 | 23.13573 | 88.47876 | 9040 ft | 412 kts | 180° |
| 2026-04-21 08:33 | 23.10824 | 88.48026 | 7629 ft | 405 kts | 179° |
| 2026-04-21 08:33 | 23.08044 | 88.48190 | 6262 ft | 395 kts | 178° |
| 2026-04-21 08:33 | 23.05324 | 88.48354 | 4797 ft | 388 kts | 178° |
| 2026-04-21 08:34 | 23.02708 | 88.48501 | 4067 ft | 362 kts | 178° |
| 2026-04-21 08:34 | 23.00308 | 88.48709 | 3649 ft | 331 kts | 178° |
| 2026-04-21 08:34 | 22.98123 | 88.48673 | 3424 ft | 299 kts | 186° |
| 2026-04-21 08:34 | 22.96159 | 88.48411 | 3296 ft | 270 kts | 188° |
| 2026-04-21 08:35 | 22.94389 | 88.48173 | 3187 ft | 243 kts | 187° |
| 2026-04-21 08:35 | 22.92780 | 88.47981 | 3044 ft | 223 kts | 187° |
| 2026-04-21 08:35 | 22.91269 | 88.47804 | 2802 ft | 216 kts | 187° |
| 2026-04-21 08:35 | 22.89798 | 88.47632 | 2618 ft | 211 kts | 187° |
| 2026-04-21 08:36 | 22.88356 | 88.47463 | 2407 ft | 204 kts | 187° |
| 2026-04-21 08:36 | 22.86979 | 88.47301 | 2302 ft | 195 kts | 187° |
| 2026-04-21 08:36 | 22.85643 | 88.47144 | 2101 ft | 193 kts | 186° |
| 2026-04-21 08:36 | 22.84343 | 88.46991 | 1989 ft | 183 kts | 186° |
| 2026-04-21 08:37 | 22.83084 | 88.46844 | 1970 ft | 181 kts | 186° |
| 2026-04-21 08:37 | 22.81839 | 88.46698 | 1982 ft | 173 kts | 186° |
| 2026-04-21 08:37 | 22.80695 | 88.46563 | 1976 ft | 159 kts | 186° |
| 2026-04-21 08:37 | 22.79632 | 88.46439 | 1964 ft | 149 kts | 186° |
| 2026-04-21 08:38 | 22.78631 | 88.46321 | 1971 ft | 142 kts | 186° |
| 2026-04-21 08:38 | 22.77668 | 88.46208 | 1927 ft | 140 kts | 186° |
| 2026-04-21 08:38 | 22.76704 | 88.46095 | 1781 ft | 136 kts | 186° |
| 2026-04-21 08:38 | 22.75781 | 88.45987 | 1636 ft | 131 kts | 186° |
| 2026-04-21 08:39 | 22.74870 | 88.45880 | 1476 ft | 132 kts | 186° |
| 2026-04-21 08:39 | 22.73961 | 88.45774 | 1322 ft | 131 kts | 186° |
| 2026-04-21 08:39 | 22.73054 | 88.45667 | 1148 ft | 131 kts | 186° |
| 2026-04-21 08:39 | 22.72151 | 88.45561 | 978 ft | 130 kts | 186° |
| 2026-04-21 08:40 | 22.71254 | 88.45456 | 831 ft | 130 kts | 185° |
| 2026-04-21 08:40 | 22.70353 | 88.45351 | 687 ft | 129 kts | 184° |
| 2026-04-21 08:40 | 22.69459 | 88.45246 | 524 ft | 130 kts | 184° |
| 2026-04-21 08:40 | 22.68561 | 88.45137 | 398 ft | 130 kts | 184° |
| 2026-04-21 08:41 | 22.67642 | 88.45032 | 199 ft | 133 kts | 184° |
| 2026-04-21 08:41 | 22.66746 | 88.44927 | 40 ft | 124 kts | 184° |
| 2026-04-21 08:41 | 22.66016 | 88.44847 | 28 ft | 82 kts | 186° |
| 2026-04-21 08:41 | 22.65621 | 88.44800 | 30 ft | 32 kts | 187° |
| 2026-04-21 08:42 | 22.65493 | 88.44769 | 28 ft | 28 kts | 200° |
| 2026-04-21 08:42 | 22.65278 | 88.44602 | 24 ft | 28 kts | 224° |
| 2026-04-21 08:42 | 22.65105 | 88.44532 | 24 ft | 27 kts | 184° |
| 2026-04-21 08:42 | 22.65014 | 88.44516 | 24 ft | 13 kts | 204° |
| 2026-04-21 08:43 | 22.64993 | 88.44414 | 24 ft | 16 kts | 230° |
| 2026-04-21 08:43 | 22.64961 | 88.44327 | 24 ft | 14 kts | 277° |
| 2026-04-21 08:43 | 22.64970 | 88.44249 | 24 ft | 10 kts | 272° |
| 2026-04-21 08:43 | 22.64909 | 88.44219 | 24 ft | 14 kts | 183° |
| 2026-04-21 08:44 | 22.64802 | 88.44210 | 24 ft | 16 kts | 197° |
| 2026-04-21 08:44 | 22.64669 | 88.44192 | 24 ft | 22 kts | 186° |
| 2026-04-21 08:44 | 22.64511 | 88.44172 | 26 ft | 24 kts | 185° |
| 2026-04-21 08:44 | 22.64417 | 88.44137 | 25 ft | 12 kts | 253° |
| 2026-04-21 08:45 | 22.64421 | 88.44081 | 24 ft | 1 kts | 276° |
| 2026-04-21 08:45 | 22.64421 | 88.44080 | 24 ft | 0 kts | 276° |